Salem, MA (01971)

8:49 AM EST on March 02, 2015 (GMT -0500)
Pitman Road (Salem Harbor) | Change Station
CLOSE
Current Station
Personal Weather Station
Location: Marblehead, MA
Elevation: 35 ft
Nearby Weather Stations

Elev 35 ft 42.51 °N, 70.86 °W | Updated 16 seconds ago

Overcast
Overcast
31.3 °F
Feels Like 25 °F
N
7.0
Wind Variable Wind from West
Gusts 13.0 mph

Today
High -- | Low -- °F
--% Chance of Precip.
Yesterday
High -- | Low -- °F
Precip. -- in
6:17 AM 5:34 PM
Waxing Gibbous, 91% visible
Pressure 29.91 in
Visibility 9.0 miles
Clouds Mostly Cloudy 7000 ft
Overcast 9000 ft
Windchill 25 °F
Dew Point 26 °F
Humidity 80%
Rainfall 0.00 in
Snow Depth Not available.
UV 0 out of 12
Pollen .40 out of 12
Air Quality Not available.
Flu Activity Not available.
METAR KBVY 021253Z 27003KT 9SM BKN070 OVC090 M03/M06 A2992 RMK AO2 SLP129 T10281061

More Conditions Fewer Conditions

Pressure 29.91 in
Visibility 9.0 miles
Clouds Mostly Cloudy 7000 ft
Overcast 9000 ft
Windchill 25 °F
Dew Point 26 °F
Humidity 80%
Rainfall 0.00 in
Snow Depth Not available.
UV 0 out of 12
Pollen .40 out of 12
Air Quality Not available.
Flu Activity Not available.
METAR KBVY 021253Z 27003KT 9SM BKN070 OVC090 M03/M06 A2992 RMK AO2 SLP129 T10281061

More Conditions Fewer Conditions

10-Day Weather Forecast

Almanac

Astronomy

Mar. 02, 2015 Rise Set
Actual Time
Civil Twilight
Nautical Twilight
Astronomical Twilight
Moon
Length of Visible Light
Length of Day
Tomorrow will be .
, % of the Moon is Illuminated

Today's Extremes

State Highs State Lows

Community

WunderPhotos

Upload Photos

1,801,784 photos uploaded!

WunderBlogs® & News

Nearby

Air Quality

  Air Quality AQ Index Pollutant
Not available.

Snow Depth

Station Depth Elevation

Earthquake Activity

City Distance Mag. Time & Date
Minimum magnitude displayed is 2.5.

Coastal Water Temperatures

Place Temperature

Nearby Weather Stations